Pagrindinis puslapis
METAR-TAF:

METAR-TAF

Oro uostai :

Danango tarptautinis oro uostas

Danangas, Vietnamas

platuma: 16-02N, ilguma: 108-11E, Aukštis: 7 m

Dabartinis oras

Ataskaita buvo paskelbta 11 minutes, ne 01:00 UTC
Vėjas 1 kt nuo kintamojo kryptimis
Temperatūra 24°C
Drėgmė 83%
Slėgis 1008 hPa
Matomumas: 6000 m

METAR: VVDN 260100Z VRB01KT 6000 NSC 24/21 Q1008 NOSIG

Laikas: 08:11 (01:11 UTC)

Prognozė

Ataskaita buvo paskelbta 2 valandos ir 11 minutes, ne 23:00 UTC
Prognozė galioja nuo 26 metu 00 UTC su 26 metu 24 UTC
Vėjas 4 kt iš Pietvakarių
Matomumas: 7000 m
Mažai debesys ne aukštis 1500 ft
Tapsmas
nuo 26 metu 04 UTC su 26 metu 05 UTC
Vėjas 10 kt iš Rytų/Pietryčių
Tapsmas
nuo 26 metu 11 UTC su 26 metu 12 UTC
Vėjas 4 kt iš Pietų/Pietvakarių

TAF: VVDN 252300Z 2600/2624 23004KT 7000 FEW015 BECMG 2604/2605 11010KT BECMG 2611/2612 21004KT

Orai ataskaitas ir orų prognozės (METAR, TAF).

turimą stotys yra geltonos ir raudonos taškus žemėlapyje.

Perkelti pele per norėdami pamatyti stoties vardą.

Tada spustelėkite, norėdami matyti oro stebėjimo ir prognozės.

Norėdami pakeisti žemėlapį: spustelėkite ant žalios mygtukų su juodo kryžiaus žemyn,; žalią mygtuką su brūkšneliu, jei norite nutolinti; arba žalių rodyklių gretimoms žemėlapius.


METAR-TAF: